Impacts TAF Board
For situational awareness. Not to be used for flight planning purposes.
IDs:

KSSF - San Antonio/Stinson, TX, US

Issued at 1449 UTC 03 Dec 2021
Updated at 1711 UTC 03 Dec 2021
Potential Impact None Slight Moderate High
Time<<04/06Z 04/07Z 04/08Z 04/09Z 04/10Z 04/11Z 04/12Z 04/13Z 04/14Z 04/15Z 04/16Z 04/17Z 04/18Z>>
Type PRVL PRVL PRVL PRVL PRVL PRVL
VIS 1 1 1 1 1 1
CIG 10 10 10 10 10 10
Cover OVC OVC OVC OVC OVC OVC
FltCat IFR IFR IFR IFR IFR IFR
WX BR BR BR BR BR BR
WDir 170 170 170 170 170 170
WSpd 3 3 3 3 3 3
WGst -- -- -- -- -- --
WSHgt -- -- -- -- -- --
WSDir -- -- -- -- -- --
WSSpd -- -- -- -- -- --
Raw TAF
KSSF 031449Z 0315/0412 01004KT P6SM VCSH BKN009 OVC110
  TEMPO 0315/0316 4SM -RA BKN004
  FM031700 15007KT P6SM FEW035 FEW100
  FM040500 17003KT 1SM BR OVC010


METAR Board
Radar Display
Forecast Discussion
For situational awareness. Not to be used for flight planning purposes.